Time;durP1;ratioP1;P1;durP2;ratioP2;P2;SDS_P1;SDS_P2;PMS_P1;PMS_P2;Temp;Humidity;BMP_temperature;BMP_pressure;BME280_temperature;BME280_humidity;BME280_pressure;Samples;Min_cycle;Max_cycle;Signal;HPM_P1;HPM_P2
2023/01/10 00:07:46;;;;;;;;;;;;;;;;;;;;;
2023/01/10 00:15:29;;;;;;;;;;;;;;;;;;;;;
2023/01/10 00:19:21;;;;;;;7.43;4.60;;;;;;;;;;5827762;24;20019;-92
2023/01/10 00:36:44;;;;;;;6.35;3.42;;;;;;;;;;6095069;23;20018;-91
2023/01/10 00:46:51;;;;;;;6.57;3.97;;;;;;;;;;6055017;23;20011;-91
2023/01/10 01:04:34;;;;;;;;;;;;;;;;;;;;;
2023/01/10 01:08:16;;;;;;;;;;;;;;;;;;;;;
2023/01/10 01:20:09;;;;;;;6.80;3.28;;;;;;;;;;5791915;24;20020;-93
2023/01/10 01:23:57;;;;;;;;;;;;;;;;;;;;;
2023/01/10 01:40:06;;;;;;;5.63;2.67;;;;;;;;;;5737322;24;20020;-92
2023/01/10 01:54:14;;;;;;;7.35;3.03;;;;;;;;;;6093078;23;20026;-92
2023/01/10 01:57:38;;;;;;;6.30;2.60;;;;;;;;;;6095355;23;20362;-92
2023/01/10 02:00:57;;;;;;;;;;;;;;;;;;;;;
2023/01/10 02:16:14;;;;;;;;;;;;;;;;;;;;;
2023/01/10 02:19:53;;;;;;;4.72;2.05;;;;;;;;;;5897633;24;20149;-92
2023/01/10 02:23:30;;;;;;;5.13;1.98;;;;;;;;;;5828409;24;20448;-92
2023/01/10 02:27:07;;;;;;;4.50;2.50;;;;;;;;;;5842699;24;20017;-92
2023/01/10 02:34:20;;;;;;;5.65;2.58;;;;;;;;;;5871250;24;20532;-93
2023/01/10 02:45:45;;;;;;;;;;;;;;;;;;;;;
2023/01/10 02:48:35;;;;;;;4.65;2.05;;;;;;;;;;5954103;23;20012;-92
2023/01/10 02:52:02;;;;;;;;;;;;;;;;;;;;;
2023/01/10 02:55:26;;;;;;;;;;;;;;;;;;;;;
2023/01/10 02:59:11;;;;;;;6.93;2.33;;;;;;;;;;6031982;23;20011;-92
2023/01/10 03:02:51;;;;;;;4.55;1.85;;;;;;;;;;6047981;23;20022;-92
2023/01/10 03:06:25;;;;;;;5.03;1.95;;;;;;;;;;6024266;23;20015;-92
2023/01/10 03:10:49;;;;;;;5.60;1.90;;;;;;;;;;5925033;24;20472;-92
2023/01/10 03:14:17;;;;;;;4.97;1.98;;;;;;;;;;6043707;23;20411;-92
2023/01/10 03:25:00;;;;;;;3.05;1.55;;;;;;;;;;5912451;24;20427;-92
2023/01/10 03:47:44;;;;;;;4.47;2.30;;;;;;;;;;5843401;24;20018;-92
2023/01/10 03:51:20;;;;;;;5.70;1.58;;;;;;;;;;5793407;24;20011;-92
2023/01/10 03:54:59;;;;;;;4.97;1.88;;;;;;;;;;5846267;24;20022;-91
2023/01/10 04:10:31;;;;;;;;;;;;;;;;;;;;;
2023/01/10 04:13:53;;;;;;;4.13;1.80;;;;;;;;;;6080006;23;20418;-91
2023/01/10 04:25:08;;;;;;;4.95;1.60;;;;;;;;;;5979222;24;20460;-92
2023/01/10 04:28:17;;;;;;;5.63;1.67;;;;;;;;;;5903471;24;20012;-92
2023/01/10 04:31:18;;;;;;;;;;;;;;;;;;;;;
2023/01/10 04:34:47;;;;;;;3.78;1.40;;;;;;;;;;5949439;24;20095;-92
2023/01/10 04:41:24;;;;;;;4.40;1.95;;;;;;;;;;5900965;24;20055;-93
2023/01/10 04:44:25;;;;;;;4.88;1.80;;;;;;;;;;5965826;24;20532;-92
2023/01/10 04:47:59;;;;;;;6.15;1.40;;;;;;;;;;5936858;24;20020;-92
2023/01/10 04:51:54;;;;;;;;;;;;;;;;;;;;;
2023/01/10 04:55:04;;;;;;;;;;;;;;;;;;;;;
2023/01/10 04:58:17;;;;;;;7.97;1.92;;;;;;;;;;6016024;23;20015;-91
2023/01/10 05:01:42;;;;;;;5.50;1.80;;;;;;;;;;6003573;23;20034;-91
2023/01/10 05:05:27;;;;;;;3.22;1.58;;;;;;;;;;5988394;23;20059;-92
2023/01/10 05:09:02;;;;;;;4.68;1.83;;;;;;;;;;5915441;24;20091;-92
2023/01/10 05:12:49;;;;;;;5.90;1.73;;;;;;;;;;5938785;23;20012;-92
2023/01/10 05:16:38;;;;;;;6.80;1.67;;;;;;;;;;6008717;23;20336;-92
2023/01/10 07:07:37;;;;;;;57.25;38.45;;;;;;;;;;6095459;23;20522;-89
2023/01/10 07:10:07;;;;;;;52.00;35.13;;;;;;;;;;6024446;23;20533;-90
2023/01/10 07:13:40;;;;;;;48.15;34.38;;;;;;;;;;6019209;23;20015;-91
2023/01/10 07:16:13;;;;;;;45.90;31.58;;;;;;;;;;5902681;24;20074;-93
2023/01/10 07:18:54;;;;;;;50.17;32.13;;;;;;;;;;5901712;24;20553;-91
2023/01/10 07:21:37;;;;;;;38.85;28.80;;;;;;;;;;5822638;24;20023;-92
2023/01/10 07:24:28;;;;;;;41.78;27.80;;;;;;;;;;5856060;24;20013;-92
2023/01/10 07:27:54;;;;;;;39.78;25.35;;;;;;;;;;5909900;24;20021;-92
2023/01/10 07:30:51;;;;;;;34.80;24.23;;;;;;;;;;5925302;24;20021;-92
2023/01/10 07:33:23;;;;;;;37.00;24.17;;;;;;;;;;5901551;24;20021;-90
2023/01/10 07:40:43;;;;;;;33.75;22.60;;;;;;;;;;5847664;24;20018;-92
2023/01/10 07:43:54;;;;;;;30.92;21.40;;;;;;;;;;5823297;24;20018;-93
2023/01/10 07:47:48;;;;;;;;;;;;;;;;;;;;;
2023/01/10 08:04:25;;;;;;;28.77;18.70;;;;;;;;;;6067820;23;20019;-91
2023/01/10 08:07:16;;;;;;;30.23;19.40;;;;;;;;;;5999628;23;20457;-92
2023/01/10 08:09:47;;;;;;;30.80;19.83;;;;;;;;;;6025931;23;20018;-92
2023/01/10 08:12:13;;;;;;;30.08;21.10;;;;;;;;;;5999613;23;20031;-92
2023/01/10 08:15:29;;;;;;;;;;;;;;;;;;;;;
2023/01/10 08:28:04;;;;;;;;;;;;;;;;;;;;;
2023/01/10 09:27:12;;;;;;;30.92;20.25;;;;;;;;;;6094869;23;20030;-92
2023/01/10 10:35:26;;;;;;;19.02;11.85;;;;;;;;;;5978972;23;20036;-92
2023/01/10 10:38:42;;;;;;;17.73;10.65;;;;;;;;;;5975914;23;20098;-93
2023/01/10 10:41:55;;;;;;;18.67;10.38;;;;;;;;;;5990561;23;20105;-92
2023/01/10 10:45:35;;;;;;;16.45;11.18;;;;;;;;;;5968728;23;20035;-92
2023/01/10 11:22:59;;;;;;;15.70;8.45;;;;;;;;;;5931886;24;20088;-91
2023/01/10 11:26:04;;;;;;;12.77;7.40;;;;;;;;;;5900476;24;20083;-92
2023/01/10 11:28:48;;;;;;;12.35;7.53;;;;;;;;;;5918730;24;20416;-92
2023/01/10 11:31:29;;;;;;;13.52;8.13;;;;;;;;;;5912693;24;20008;-91
2023/01/10 11:33:59;;;;;;;11.00;7.25;;;;;;;;;;5934423;24;20444;-90
2023/01/10 11:36:27;;;;;;;10.90;6.45;;;;;;;;;;5932894;24;20012;-91
2023/01/10 11:39:05;;;;;;;13.98;7.15;;;;;;;;;;5934256;24;20012;-90
2023/01/10 11:41:33;;;;;;;13.93;6.70;;;;;;;;;;5910587;24;20065;-91
2023/01/10 11:44:17;;;;;;;12.75;7.05;;;;;;;;;;5910792;24;20489;-91
2023/01/10 11:46:49;;;;;;;10.70;6.75;;;;;;;;;;5938479;23;20027;-91
2023/01/10 11:49:24;;;;;;;11.05;5.95;;;;;;;;;;5945039;23;20151;-91
2023/01/10 11:51:55;;;;;;;12.15;7.28;;;;;;;;;;5945408;23;20023;-91
2023/01/10 11:54:28;;;;;;;11.32;6.60;;;;;;;;;;6015110;23;20090;-91
2023/01/10 11:57:02;;;;;;;10.65;5.85;;;;;;;;;;5967232;23;20019;-92
2023/01/10 11:59:28;;;;;;;10.98;5.53;;;;;;;;;;5967716;23;20448;-91
2023/01/10 12:02:13;;;;;;;11.10;6.18;;;;;;;;;;5969764;23;20090;-91
2023/01/10 12:05:04;;;;;;;10.48;5.60;;;;;;;;;;5990069;23;20015;-91
2023/01/10 12:08:14;;;;;;;12.07;5.63;;;;;;;;;;6010701;23;20019;-91
2023/01/10 12:10:47;;;;;;;11.35;4.88;;;;;;;;;;5968256;23;20131;-91
2023/01/10 12:13:21;;;;;;;13.43;6.05;;;;;;;;;;5944271;23;20024;-91
2023/01/10 12:16:13;;;;;;;9.63;5.28;;;;;;;;;;5969496;23;20020;-90
2023/01/10 12:18:46;;;;;;;11.80;6.28;;;;;;;;;;5972033;23;20019;-92
2023/01/10 12:21:51;;;;;;;11.45;5.22;;;;;;;;;;5966448;23;20011;-92
2023/01/10 12:24:59;;;;;;;9.93;4.80;;;;;;;;;;5966122;23;20007;-92
2023/01/10 12:27:34;;;;;;;9.27;5.30;;;;;;;;;;5992395;23;20019;-92
2023/01/10 12:30:45;;;;;;;10.32;4.70;;;;;;;;;;5971286;23;20038;-92
2023/01/10 12:33:23;;;;;;;9.13;4.65;;;;;;;;;;5976148;23;20471;-92
2023/01/10 12:35:53;;;;;;;9.60;5.13;;;;;;;;;;5948273;23;20098;-91
2023/01/10 12:44:56;;;;;;;10.38;5.03;;;;;;;;;;5976637;23;20027;-92
2023/01/10 12:47:51;;;;;;;12.60;4.15;;;;;;;;;;5892559;24;20112;-91
2023/01/10 12:50:40;;;;;;;12.38;5.82;;;;;;;;;;5986699;23;20011;-90
2023/01/10 12:53:26;;;;;;;12.43;4.93;;;;;;;;;;5945250;23;20018;-92
2023/01/10 12:55:55;;;;;;;7.53;3.67;;;;;;;;;;5985955;23;20015;-92
2023/01/10 12:58:37;;;;;;;9.63;4.20;;;;;;;;;;5949195;23;20447;-91
2023/01/10 13:01:06;;;;;;;9.20;4.30;;;;;;;;;;5968557;23;20015;-91
2023/01/10 13:04:00;;;;;;;7.82;3.95;;;;;;;;;;5967316;23;20015;-92
2023/01/10 13:06:36;;;;;;;7.60;3.75;;;;;;;;;;5991376;23;20347;-91
2023/01/10 13:09:13;;;;;;;7.35;3.58;;;;;;;;;;5945147;23;20011;-90
2023/01/10 13:12:07;;;;;;;9.30;4.30;;;;;;;;;;5968411;23;20011;-92
2023/01/10 13:14:45;;;;;;;7.10;3.40;;;;;;;;;;5969180;23;20027;-91
2023/01/10 13:17:33;;;;;;;7.28;3.60;;;;;;;;;;5969212;23;20031;-92
2023/01/10 13:20:24;;;;;;;8.85;3.95;;;;;;;;;;5992074;23;20376;-91
2023/01/10 13:23:35;;;;;;;6.70;3.22;;;;;;;;;;5969455;23;20015;-91
2023/01/10 13:26:07;;;;;;;8.65;3.90;;;;;;;;;;6015030;23;20015;-91
2023/01/10 13:28:37;;;;;;;7.38;4.32;;;;;;;;;;5947498;23;20011;-91
2023/01/10 13:31:05;;;;;;;11.23;4.53;;;;;;;;;;5945611;23;20464;-91
2023/01/10 13:33:55;;;;;;;7.07;3.70;;;;;;;;;;5971255;23;20030;-92
2023/01/10 13:36:49;;;;;;;8.38;3.22;;;;;;;;;;5967859;23;20093;-91
2023/01/10 13:40:00;;;;;;;6.95;3.50;;;;;;;;;;6004101;23;20018;-91
2023/01/10 13:43:44;;;;;;;6.55;3.00;;;;;;;;;;6013740;23;20047;-91
2023/01/10 13:46:15;;;;;;;6.40;3.25;;;;;;;;;;5977277;23;20011;-92
2023/01/10 13:48:53;;;;;;;7.07;3.28;;;;;;;;;;5992129;23;20015;-91
2023/01/10 13:52:04;;;;;;;8.38;3.30;;;;;;;;;;5987628;23;20007;-93
2023/01/10 13:54:48;;;;;;;;;;;;;;;;;;;;;
2023/01/10 13:57:53;;;;;;;8.55;3.90;;;;;;;;;;5975374;23;20086;-91
2023/01/10 14:03:52;;;;;;;8.35;3.53;;;;;;;;;;5977682;23;20491;-91
2023/01/10 14:06:36;;;;;;;5.85;3.00;;;;;;;;;;5991400;23;20364;-91
2023/01/10 14:09:30;;;;;;;5.60;3.05;;;;;;;;;;5993980;23;20015;-91
2023/01/10 14:12:04;;;;;;;6.60;3.20;;;;;;;;;;5968472;23;20049;-91
2023/01/10 14:14:41;;;;;;;6.95;3.22;;;;;;;;;;5968374;23;20035;-91
2023/01/10 14:17:52;;;;;;;6.50;2.60;;;;;;;;;;5968634;23;20062;-92
2023/01/10 14:21:06;;;;;;;5.07;2.20;;;;;;;;;;6003753;23;20015;-92
2023/01/10 14:23:52;;;;;;;5.47;2.50;;;;;;;;;;6039378;23;20504;-91
2023/01/10 14:27:17;;;;;;;4.57;2.35;;;;;;;;;;5970960;23;20090;-91
2023/01/10 14:30:04;;;;;;;6.30;2.92;;;;;;;;;;5995301;23;20019;-91
2023/01/10 14:33:21;;;;;;;8.05;2.85;;;;;;;;;;5970675;23;20011;-92
2023/01/10 14:37:09;;;;;;;7.40;2.85;;;;;;;;;;6012728;23;20043;-92
2023/01/10 15:02:24;;;;;;;5.50;2.28;;;;;;;;;;5842930;24;20033;-91
2023/01/10 15:17:28;;;;;;;6.32;2.05;;;;;;;;;;5923607;24;20023;-92
2023/01/10 15:21:12;;;;;;;;;;;;;;;;;;;;;
2023/01/10 15:39:31;;;;;;;4.55;2.00;;;;;;;;;;6124888;23;20022;-92
2023/01/10 15:42:37;;;;;;;5.60;2.13;;;;;;;;;;6081364;23;20010;-91
2023/01/10 15:45:56;;;;;;;;;;;;;;;;;;;;;
2023/01/10 15:49:00;;;;;;;3.90;1.60;;;;;;;;;;6079113;23;20006;-92
2023/01/10 15:52:03;;;;;;;4.90;1.45;;;;;;;;;;6059750;23;20014;-92
2023/01/10 15:55:13;;;;;;;5.82;2.13;;;;;;;;;;6051074;23;20006;-91
2023/01/10 15:58:00;;;;;;;4.47;1.50;;;;;;;;;;6017856;23;20017;-92
2023/01/10 16:01:16;;;;;;;3.80;1.48;;;;;;;;;;6031743;23;20010;-91
2023/01/10 16:04:25;;;;;;;4.95;1.85;;;;;;;;;;6055860;23;20097;-91
2023/01/10 16:08:01;;;;;;;3.13;1.67;;;;;;;;;;5985366;23;20421;-92
2023/01/10 16:11:00;;;;;;;3.65;1.80;;;;;;;;;;5946631;23;20395;-92
2023/01/10 16:13:42;;;;;;;3.50;1.65;;;;;;;;;;5956282;23;20466;-92
2023/01/10 16:16:40;;;;;;;6.90;1.88;;;;;;;;;;5975137;23;20038;-92
2023/01/10 16:19:34;;;;;;;3.13;1.17;;;;;;;;;;6017208;23;20062;-90
2023/01/10 16:22:24;;;;;;;3.25;1.20;;;;;;;;;;6017838;23;20017;-91
2023/01/10 16:25:38;;;;;;;4.82;1.55;;;;;;;;;;6006573;23;20039;-91
2023/01/10 16:28:27;;;;;;;4.45;1.63;;;;;;;;;;6014871;23;20019;-92
2023/01/10 16:31:56;;;;;;;2.70;1.45;;;;;;;;;;5973767;23;20471;-92
2023/01/10 16:35:05;;;;;;;4.32;1.33;;;;;;;;;;6023752;23;20331;-91
2023/01/10 16:38:28;;;;;;;3.77;1.37;;;;;;;;;;5998063;23;20031;-92
2023/01/10 16:44:18;;;;;;;3.55;1.50;;;;;;;;;;6022276;23;20007;-91
2023/01/10 16:47:04;;;;;;;4.30;1.25;;;;;;;;;;5972978;23;20007;-92
2023/01/10 16:50:03;;;;;;;3.58;1.20;;;;;;;;;;6041220;23;20019;-92
2023/01/10 16:53:45;;;;;;;4.07;1.20;;;;;;;;;;5993322;23;20460;-91
2023/01/10 17:04:14;;;;;;;3.47;0.95;;;;;;;;;;6087473;23;20045;-92
2023/01/10 17:10:09;;;;;;;;;;;;;;;;;;6050392;23;20014;-91
2023/01/10 17:13:24;;;;;;;4.32;1.17;;;;;;;;;;6051812;23;19941;-92
2023/01/10 17:19:30;;;;;;;3.08;1.35;;;;;;;;;;6027122;23;20014;-92
2023/01/10 17:22:27;;;;;;;3.63;1.27;;;;;;;;;;6023393;23;20006;-91
2023/01/10 17:25:26;;;;;;;1.70;0.82;;;;;;;;;;6025993;23;20017;-91
2023/01/10 17:28:27;;;;;;;2.35;0.75;;;;;;;;;;6061093;23;20084;-91
2023/01/10 17:31:11;;;;;;;2.95;0.80;;;;;;;;;;6051504;23;20049;-92
2023/01/10 17:34:10;;;;;;;2.95;1.00;;;;;;;;;;6059656;23;20090;-91
2023/01/10 17:37:01;;;;;;;1.95;0.80;;;;;;;;;;6003173;23;20015;-92
2023/01/10 17:39:38;;;;;;;2.97;0.82;;;;;;;;;;6025642;23;20018;-91
2023/01/10 17:42:21;;;;;;;3.58;0.90;;;;;;;;;;6002445;23;20332;-92
2023/01/10 17:49:02;;;;;;;2.85;0.82;;;;;;;;;;5966851;23;20015;-91
2023/01/10 17:51:49;;;;;;;2.60;1.00;;;;;;;;;;5942002;23;20007;-92
2023/01/10 17:54:17;;;;;;;2.38;1.00;;;;;;;;;;5940582;23;20007;-91
2023/01/10 17:57:32;;;;;;;2.47;0.98;;;;;;;;;;5989833;23;20493;-92
2023/01/10 18:00:00;;;;;;;1.88;0.70;;;;;;;;;;5961559;23;20090;-91
2023/01/10 18:03:18;;;;;;;2.10;0.90;;;;;;;;;;5960512;23;20070;-92
2023/01/10 18:06:56;;;;;;;;;;;;;;;;;;;;;
2023/01/10 18:10:17;;;;;;;3.58;0.68;;;;;;;;;;6008323;23;20023;-92
2023/01/10 18:13:19;;;;;;;1.55;0.47;;;;;;;;;;6069557;23;20015;-92
2023/01/10 18:16:08;;;;;;;1.83;0.63;;;;;;;;;;6027916;23;20069;-92
2023/01/10 18:18:52;;;;;;;1.85;0.60;;;;;;;;;;6025120;23;20017;-91
2023/01/10 18:21:47;;;;;;;1.73;0.50;;;;;;;;;;6040528;23;20018;-93
2023/01/10 18:24:37;;;;;;;3.47;0.88;;;;;;;;;;6026202;23;20009;-91
2023/01/10 18:27:27;;;;;;;2.05;0.70;;;;;;;;;;6032614;23;20003;-91
2023/01/10 18:30:05;;;;;;;3.00;0.77;;;;;;;;;;6028946;23;20017;-92
2023/01/10 18:32:38;;;;;;;1.60;0.60;;;;;;;;;;6025595;23;20054;-91
2023/01/10 18:35:56;;;;;;;2.00;0.80;;;;;;;;;;6006944;23;20015;-92
2023/01/10 18:38:49;;;;;;;1.88;0.55;;;;;;;;;;6047533;23;20097;-91
2023/01/10 18:45:52;;;;;;;2.37;0.47;;;;;;;;;;5927436;24;20012;-92
2023/01/10 18:48:18;;;;;;;2.55;0.90;;;;;;;;;;5931920;23;20069;-91
2023/01/10 18:50:46;;;;;;;1.95;0.50;;;;;;;;;;6000219;23;20443;-91
2023/01/10 18:53:11;;;;;;;2.50;0.50;;;;;;;;;;5999898;23;20114;-90
2023/01/10 18:55:37;;;;;;;1.38;0.60;;;;;;;;;;5998897;23;20514;-90
2023/01/10 18:58:02;;;;;;;4.07;0.85;;;;;;;;;;6024018;23;20049;-91
2023/01/10 19:00:27;;;;;;;1.45;0.40;;;;;;;;;;6023819;23;20153;-91
2023/01/10 19:03:22;;;;;;;1.98;0.50;;;;;;;;;;6000378;23;20025;-94
2023/01/10 19:05:48;;;;;;;1.30;0.40;;;;;;;;;;6004719;23;20014;-91
2023/01/10 19:08:15;;;;;;;2.63;0.70;;;;;;;;;;6000379;23;20030;-90
2023/01/10 19:10:50;;;;;;;1.13;0.35;;;;;;;;;;5999795;23;20010;-90
2023/01/10 19:13:30;;;;;;;2.30;0.55;;;;;;;;;;6000545;23;20022;-91
2023/01/10 19:16:23;;;;;;;1.55;0.50;;;;;;;;;;6050137;23;20014;-90
2023/01/10 19:19:01;;;;;;;1.08;0.32;;;;;;;;;;6002841;23;20384;-90
2023/01/10 19:21:36;;;;;;;1.98;0.52;;;;;;;;;;6023594;23;20399;-90
2023/01/10 19:24:33;;;;;;;2.20;0.32;;;;;;;;;;6008118;23;20018;-92
2023/01/10 19:27:18;;;;;;;1.85;0.32;;;;;;;;;;6049234;23;20487;-91
2023/01/10 19:30:12;;;;;;;1.08;0.38;;;;;;;;;;6002854;23;20406;-91
2023/01/10 19:32:47;;;;;;;1.27;0.40;;;;;;;;;;6048445;23;20649;-91
2023/01/10 19:36:16;;;;;;;0.88;0.20;;;;;;;;;;6037276;23;20033;-91
2023/01/10 19:38:55;;;;;;;1.13;0.43;;;;;;;;;;6069790;23;20521;-91
2023/01/10 19:41:27;;;;;;;2.35;0.50;;;;;;;;;;6045853;23;20074;-90
2023/01/10 19:47:16;;;;;;;1.52;0.50;;;;;;;;;;5979100;24;20059;-91
2023/01/10 19:49:50;;;;;;;1.70;0.52;;;;;;;;;;6012567;23;20018;-91
2023/01/10 19:52:21;;;;;;;1.17;0.30;;;;;;;;;;5996001;23;20029;-90
2023/01/10 19:54:51;;;;;;;1.17;0.30;;;;;;;;;;5995868;23;20356;-90
2023/01/10 19:57:26;;;;;;;0.98;0.32;;;;;;;;;;6018648;23;20452;-91
2023/01/10 19:59:58;;;;;;;1.33;0.43;;;;;;;;;;6019827;23;20015;-91
2023/01/10 20:02:32;;;;;;;1.50;0.50;;;;;;;;;;6019494;23;20019;-91
2023/01/10 20:05:12;;;;;;;1.67;0.40;;;;;;;;;;5996157;23;20482;-90
2023/01/10 20:07:57;;;;;;;0.90;0.25;;;;;;;;;;6019502;23;20388;-91
2023/01/10 20:10:29;;;;;;;0.70;0.28;;;;;;;;;;5999305;23;20086;-91
2023/01/10 20:13:17;;;;;;;1.45;0.38;;;;;;;;;;6025690;23;20019;-91
2023/01/10 20:15:51;;;;;;;1.83;0.40;;;;;;;;;;6019405;23;20011;-90
2023/01/10 20:18:23;;;;;;;0.93;0.35;;;;;;;;;;5997290;23;20014;-91
2023/01/10 20:21:02;;;;;;;1.30;0.50;;;;;;;;;;5995834;23;20070;-91
2023/01/10 20:23:47;;;;;;;1.25;0.30;;;;;;;;;;6021702;23;20375;-91
2023/01/10 20:26:26;;;;;;;1.30;0.40;;;;;;;;;;5996588;23;20018;-91
2023/01/10 20:29:03;;;;;;;0.63;0.20;;;;;;;;;;6019557;23;20109;-91
2023/01/10 20:31:54;;;;;;;0.63;0.20;;;;;;;;;;6019391;23;20727;-91
2023/01/10 20:34:27;;;;;;;0.67;0.20;;;;;;;;;;5998458;23;20015;-91
2023/01/10 20:37:02;;;;;;;1.13;0.30;;;;;;;;;;6018418;23;20129;-91
2023/01/10 20:39:31;;;;;;;0.95;0.20;;;;;;;;;;5996133;23;20011;-90
2023/01/10 20:42:00;;;;;;;1.15;0.40;;;;;;;;;;6019252;23;20094;-90
2023/01/10 20:44:31;;;;;;;0.95;0.25;;;;;;;;;;6018773;23;20023;-91
2023/01/10 20:47:08;;;;;;;1.35;0.30;;;;;;;;;;6020802;23;20422;-91
2023/01/10 20:49:40;;;;;;;1.08;0.30;;;;;;;;;;5998190;23;20324;-91
2023/01/10 20:52:11;;;;;;;1.40;0.30;;;;;;;;;;6020561;23;20018;-91
2023/01/10 20:54:40;;;;;;;0.68;0.30;;;;;;;;;;6020884;23;20022;-91
2023/01/10 20:57:14;;;;;;;0.85;0.13;;;;;;;;;;6021168;23;20343;-90
2023/01/10 20:59:47;;;;;;;1.42;0.22;;;;;;;;;;6021350;23;20014;-91
2023/01/10 21:02:16;;;;;;;0.73;0.30;;;;;;;;;;6020772;23;20122;-91
2023/01/10 21:04:51;;;;;;;0.93;0.20;;;;;;;;;;5998154;23;20019;-91
2023/01/10 21:07:24;;;;;;;1.17;0.30;;;;;;;;;;5997727;23;20019;-91
2023/01/10 21:10:45;;;;;;;0.45;0.17;;;;;;;;;;6022458;23;20043;-90
2023/01/10 21:14:30;;;;;;;1.25;0.30;;;;;;;;;;5952232;24;20373;-91
2023/01/10 21:21:45;;;;;;;2.10;0.55;;;;;;;;;;5815320;24;20026;-91
2023/01/10 21:25:31;;;;;;;4.30;0.73;;;;;;;;;;5751709;24;20517;-91
2023/01/10 21:28:18;;;;;;;2.75;0.70;;;;;;;;;;5792663;24;20030;-90
2023/01/10 21:30:44;;;;;;;1.30;0.25;;;;;;;;;;5817563;24;20029;-90
2023/01/10 21:33:13;;;;;;;3.53;0.52;;;;;;;;;;5862727;24;20013;-91
2023/01/10 21:35:41;;;;;;;5.03;0.73;;;;;;;;;;5862976;24;20023;-91
2023/01/10 21:38:08;;;;;;;1.33;0.45;;;;;;;;;;5862837;24;20023;-91
2023/01/10 21:40:41;;;;;;;2.03;0.98;;;;;;;;;;5863220;24;20481;-91
2023/01/10 21:43:10;;;;;;;1.70;0.52;;;;;;;;;;5862878;24;20104;-91
2023/01/10 21:45:44;;;;;;;2.13;0.40;;;;;;;;;;5864238;24;20441;-88
2023/01/10 21:48:13;;;;;;;3.78;0.43;;;;;;;;;;5874891;24;20020;-89
2023/01/10 21:50:43;;;;;;;2.47;0.68;;;;;;;;;;5912788;24;20406;-89
2023/01/10 21:53:12;;;;;;;1.77;0.40;;;;;;;;;;5934515;23;20472;-88
2023/01/10 21:55:44;;;;;;;1.25;0.50;;;;;;;;;;5912729;24;20389;-88
2023/01/10 21:58:12;;;;;;;2.10;0.57;;;;;;;;;;5912549;24;20407;-88
2023/01/10 22:04:43;;;;;;;2.78;0.70;;;;;;;;;;6004809;23;20022;-90
2023/01/10 22:11:21;;;;;;;2.78;0.55;;;;;;;;;;6055208;23;20021;-89
2023/01/10 22:14:31;;;;;;;1.17;0.30;;;;;;;;;;5996656;23;20041;-91
2023/01/10 22:25:01;;;;;;;6.75;3.58;;;;;;;;;;5954432;24;20080;-90
2023/01/10 22:28:19;;;;;;;;;;;;;;;;;;;;;
2023/01/10 22:51:54;;;;;;;5.97;2.72;;;;;;;;;;6093735;23;20026;-90
2023/01/10 22:55:03;;;;;;;7.82;2.58;;;;;;;;;;6044078;23;20053;-90
2023/01/10 22:57:53;;;;;;;5.45;2.58;;;;;;;;;;6024280;23;20024;-90
2023/01/10 23:03:37;;;;;;;6.25;2.88;;;;;;;;;;6092569;23;20026;-90
2023/01/10 23:06:11;;;;;;;3.92;2.00;;;;;;;;;;6023831;23;20030;-90
2023/01/10 23:15:49;;;;;;;4.65;2.00;;;;;;;;;;6094611;23;20058;-91
2023/01/10 23:25:01;;;;;;;5.05;2.20;;;;;;;;;;6096488;23;20026;-91
2023/01/10 23:28:09;;;;;;;3.50;2.30;;;;;;;;;;6024109;23;20053;-91
2023/01/10 23:34:49;;;;;;;4.60;2.08;;;;;;;;;;5946472;24;20373;-90
2023/01/10 23:37:55;;;;;;;4.25;1.95;;;;;;;;;;5980264;24;20020;-90
2023/01/10 23:41:05;;;;;;;4.82;2.15;;;;;;;;;;5936010;24;20017;-90
2023/01/10 23:43:54;;;;;;;3.97;1.48;;;;;;;;;;5938533;24;20023;-91
2023/01/10 23:46:55;;;;;;;4.43;2.50;;;;;;;;;;5893931;24;20645;-92
2023/01/10 23:49:30;;;;;;;5.45;1.60;;;;;;;;;;5936555;24;20020;-89
2023/01/10 23:53:09;;;;;;;;;;;;;;;;;;;;;
2023/01/10 23:56:21;;;;;;;3.90;1.65;;;;;;;;;;5867957;24;20333;-92
2023/01/10 23:59:41;;;;;;;4.75;1.95;;;;;;;;;;5980333;24;20024;-92
